Time;durP1;ratioP1;P1;durP2;ratioP2;P2;SDS_P1;SDS_P2;PMS_P1;PMS_P2;Temp;Humidity;BMP_temperature;BMP_pressure;BME280_temperature;BME280_humidity;BME280_pressure;Samples;Min_cycle;Max_cycle;Signal;HPM_P1;HPM_P2
2023/06/14 00:02:09;;;;;;;6.72;4.95;;;;;;;25.35;35.34;101380.63;5020304;28;20036;-56
2023/06/14 00:04:35;;;;;;;6.78;5.13;;;;;;;25.33;35.46;101383.53;5019431;28;20033;-56
2023/06/14 00:07:00;;;;;;;5.93;4.75;;;;;;;25.33;35.15;101389.00;5020246;28;20109;-56
2023/06/14 00:09:25;;;;;;;6.03;4.70;;;;;;;25.32;34.81;101383.72;5019391;28;20062;-56
2023/06/14 00:11:51;;;;;;;9.10;5.15;;;;;;;25.33;34.83;101386.25;5026301;28;20101;-56
2023/06/14 00:14:16;;;;;;;7.78;4.63;;;;;;;25.30;34.93;101386.66;5021196;28;20038;-56
2023/06/14 00:16:42;;;;;;;7.07;4.60;;;;;;;25.30;34.42;101386.66;5021676;28;20045;-56
2023/06/14 00:19:10;;;;;;;9.32;5.47;;;;;;;25.29;34.56;101386.81;5019556;28;20037;-56
2023/06/14 00:21:36;;;;;;;6.75;5.18;;;;;;;25.27;34.78;101388.88;5019960;28;20025;-56
2023/06/14 00:24:02;;;;;;;4.97;4.47;;;;;;;25.27;34.68;101391.63;5020845;28;20038;-56
2023/06/14 00:26:27;;;;;;;6.40;4.43;;;;;;;25.26;34.69;101389.91;5021015;28;20034;-56
2023/06/14 00:28:54;;;;;;;6.75;5.07;;;;;;;25.24;34.39;101390.06;5019726;28;20112;-56
2023/06/14 00:31:19;;;;;;;5.45;4.50;;;;;;;25.25;34.34;101396.41;5018327;28;20156;-56
2023/06/14 00:33:45;;;;;;;5.25;4.72;;;;;;;25.23;34.38;101402.03;5021975;28;20046;-56
2023/06/14 00:36:10;;;;;;;5.10;4.60;;;;;;;25.21;33.93;101389.56;5020446;28;20092;-56
2023/06/14 00:38:35;;;;;;;4.85;4.20;;;;;;;25.20;34.43;101396.06;5020684;28;20068;-56
2023/06/14 00:41:01;;;;;;;5.63;4.30;;;;;;;25.19;33.85;101395.22;5021196;28;20549;-56
2023/06/14 00:43:26;;;;;;;5.07;4.05;;;;;;;25.17;34.01;101389.94;5020283;28;20033;-56
2023/06/14 00:45:52;;;;;;;4.68;3.97;;;;;;;25.17;34.01;101389.09;5019131;28;20060;-56
2023/06/14 00:48:17;;;;;;;6.07;4.60;;;;;;;25.17;34.06;101397.28;5019587;28;20133;-56
2023/06/14 00:50:45;;;;;;;8.18;4.28;;;;;;;25.16;33.84;101401.00;5021048;28;20037;-56
2023/06/14 00:53:17;;;;;;;5.22;4.70;;;;;;;25.14;33.73;101403.91;5017081;28;20029;-56
2023/06/14 00:55:43;;;;;;;6.80;4.50;;;;;;;25.12;33.42;101397.78;5019381;28;20056;-56
2023/06/14 00:58:09;;;;;;;5.65;4.15;;;;;;;25.13;33.65;101395.91;5020502;28;20029;-56
2023/06/14 01:00:34;;;;;;;6.80;4.28;;;;;;;25.12;33.68;101394.22;5016769;28;20042;-56
2023/06/14 01:03:01;;;;;;;7.25;3.85;;;;;;;25.12;33.38;101396.97;5019097;28;20045;-56
2023/06/14 01:05:27;;;;;;;4.95;4.28;;;;;;;25.09;33.23;101395.44;5020015;28;20636;-56
2023/06/14 01:08:00;;;;;;;6.75;4.25;;;;;;;25.10;33.68;101404.47;5017382;28;20377;-56
2023/06/14 01:10:36;;;;;;;6.65;4.03;;;;;;;25.08;33.35;101398.34;5021104;28;20457;-56
2023/06/14 01:13:13;;;;;;;5.80;3.70;;;;;;;25.08;33.41;101401.06;5020842;28;20036;-56
2023/06/14 01:15:40;;;;;;;4.28;3.88;;;;;;;25.06;32.84;101401.25;5019395;28;20121;-56
2023/06/14 01:18:06;;;;;;;10.80;3.88;;;;;;;25.05;33.19;101394.09;5020065;28;20120;-56
2023/06/14 01:20:36;;;;;;;5.50;4.03;;;;;;;25.05;33.30;101404.16;5018017;28;20116;-56
2023/06/14 01:23:02;;;;;;;6.30;3.63;;;;;;;25.05;33.24;101395.97;5019885;28;20065;-56
2023/06/14 01:25:28;;;;;;;8.32;3.78;;;;;;;25.04;33.13;101397.84;5020026;28;20080;-56
2023/06/14 01:27:58;;;;;;;6.43;4.18;;;;;;;25.02;33.17;101396.31;5017035;28;20473;-56
2023/06/14 01:30:27;;;;;;;5.97;4.05;;;;;;;25.01;32.64;101400.94;5017716;28;20052;-56
2023/06/14 01:32:54;;;;;;;7.50;3.97;;;;;;;25.01;32.67;101398.22;5019834;28;20030;-56
2023/06/14 01:35:20;;;;;;;5.20;3.88;;;;;;;24.98;32.64;101399.44;5019521;28;20034;-56
2023/06/14 01:37:48;;;;;;;6.32;3.60;;;;;;;24.98;33.05;101398.59;5018483;28;20539;-56
2023/06/14 01:40:15;;;;;;;5.40;3.70;;;;;;;24.96;32.69;101403.38;5019940;28;20084;-56
2023/06/14 01:42:41;;;;;;;7.25;4.18;;;;;;;24.96;33.16;101400.66;5020393;28;20034;-56
2023/06/14 01:45:08;;;;;;;4.20;3.80;;;;;;;24.95;33.23;101398.94;5023185;28;20033;-56
2023/06/14 01:47:35;;;;;;;7.72;3.53;;;;;;;24.92;32.82;101402.88;5024406;28;20033;-56
2023/06/14 01:50:02;;;;;;;4.95;3.67;;;;;;;24.89;32.98;101400.50;5017625;28;20121;-55
2023/06/14 01:52:28;;;;;;;4.07;3.67;;;;;;;24.89;33.19;101394.22;5023161;28;20081;-56
2023/06/14 01:54:53;;;;;;;3.80;3.47;;;;;;;24.86;32.62;101400.84;5023850;28;20512;-56
2023/06/14 01:57:18;;;;;;;4.68;3.90;;;;;;;24.86;32.78;101397.28;5023592;28;20128;-56
2023/06/14 01:59:48;;;;;;;4.97;3.83;;;;;;;24.84;33.36;101386.56;5018904;28;20049;-56
2023/06/14 02:02:13;;;;;;;5.40;3.75;;;;;;;24.83;32.71;101389.44;5022992;28;20037;-56
2023/06/14 02:04:39;;;;;;;4.75;3.63;;;;;;;24.82;33.21;101399.50;5024652;28;20029;-56
2023/06/14 02:07:04;;;;;;;6.53;3.85;;;;;;;24.82;33.32;101393.22;5021468;28;20446;-56
2023/06/14 02:09:30;;;;;;;3.63;3.10;;;;;;;24.80;32.95;101390.66;5022585;28;20041;-56
2023/06/14 02:11:55;;;;;;;4.85;4.15;;;;;;;24.79;33.22;101391.72;5021147;28;20121;-56
2023/06/14 02:14:20;;;;;;;6.45;3.67;;;;;;;24.78;32.61;101392.72;5021976;28;20504;-56
2023/06/14 02:16:48;;;;;;;6.43;3.58;;;;;;;24.77;33.18;101391.03;5022136;28;20027;-56
2023/06/14 02:19:18;;;;;;;6.85;3.20;;;;;;;24.76;33.23;101397.50;5023627;28;20505;-56
2023/06/14 02:21:44;;;;;;;5.78;3.50;;;;;;;24.75;32.95;101398.50;5023205;28;20075;-56
2023/06/14 02:24:10;;;;;;;4.65;3.50;;;;;;;24.75;33.24;101387.63;5018461;28;20038;-56
2023/06/14 02:26:37;;;;;;;4.63;3.58;;;;;;;24.73;33.04;101390.56;5021649;28;20095;-56
2023/06/14 02:29:03;;;;;;;5.22;3.55;;;;;;;24.72;32.96;101402.47;5022175;28;20128;-56
2023/06/14 02:31:29;;;;;;;5.45;3.33;;;;;;;24.70;33.07;101401.78;5022716;28;20113;-56
2023/06/14 02:33:55;;;;;;;4.40;3.38;;;;;;;24.71;33.10;101408.94;5021154;28;20457;-56
2023/06/14 02:36:20;;;;;;;4.55;3.42;;;;;;;24.71;33.20;101403.50;5023152;28;20096;-56
2023/06/14 02:38:46;;;;;;;5.97;3.53;;;;;;;24.71;33.09;101408.06;5023148;28;20496;-56
2023/06/14 02:41:12;;;;;;;7.13;3.60;;;;;;;24.70;33.63;101409.13;5022563;28;20040;-55
2023/06/14 02:43:37;;;;;;;4.15;3.70;;;;;;;24.70;33.61;101411.84;5021734;28;20104;-56
2023/06/14 02:46:03;;;;;;;4.10;3.40;;;;;;;24.69;32.99;101410.97;5015777;28;20391;-56
2023/06/14 02:48:29;;;;;;;5.03;3.95;;;;;;;24.66;33.31;101414.06;5021951;28;20048;-56
2023/06/14 02:50:56;;;;;;;6.30;3.70;;;;;;;24.65;33.40;101412.34;5022483;28;20033;-56
2023/06/14 02:53:21;;;;;;;5.65;3.50;;;;;;;24.64;33.32;101416.13;5021759;28;20129;-56
2023/06/14 02:55:48;;;;;;;7.00;3.72;;;;;;;24.63;33.56;101410.84;5020809;28;20616;-56
2023/06/14 02:58:13;;;;;;;5.57;3.50;;;;;;;24.62;33.91;101406.41;5025785;28;20040;-56
2023/06/14 03:00:40;;;;;;;5.07;3.25;;;;;;;24.61;33.74;101412.91;5024035;28;20380;-56
2023/06/14 03:03:13;;;;;;;5.85;3.38;;;;;;;24.62;33.42;101414.56;5021623;28;20052;-56
2023/06/14 03:05:40;;;;;;;5.78;3.85;;;;;;;24.61;33.46;101412.91;5022542;28;20772;-56
2023/06/14 03:08:06;;;;;;;4.30;3.40;;;;;;;24.60;33.63;101414.78;5019674;28;20487;-56
2023/06/14 03:10:32;;;;;;;3.97;3.47;;;;;;;24.57;33.60;101418.69;5021632;28;20049;-56
2023/06/14 03:12:57;;;;;;;6.65;4.10;;;;;;;24.57;33.17;101421.41;5022496;28;20046;-56
2023/06/14 03:15:24;;;;;;;4.45;3.38;;;;;;;24.55;33.13;101419.91;5022421;28;20034;-56
2023/06/14 03:17:50;;;;;;;5.65;3.22;;;;;;;24.55;33.26;101420.72;5022484;28;20526;-56
2023/06/14 03:20:16;;;;;;;6.00;3.47;;;;;;;24.55;33.78;101425.34;5019809;28;20117;-56
2023/06/14 03:22:41;;;;;;;5.57;3.60;;;;;;;24.53;33.65;101430.94;5019367;28;20702;-55
2023/06/14 03:25:10;;;;;;;5.70;3.78;;;;;;;24.53;33.69;101419.22;5021478;28;20033;-56
2023/06/14 03:27:35;;;;;;;5.82;3.30;;;;;;;24.50;33.76;101433.16;5028941;28;20239;-56
2023/06/14 03:30:01;;;;;;;5.88;3.10;;;;;;;24.48;33.42;101425.16;5019387;28;20566;-56
2023/06/14 03:32:26;;;;;;;5.35;3.42;;;;;;;24.46;33.85;101427.19;5021574;28;20021;-56
2023/06/14 03:34:52;;;;;;;4.82;3.17;;;;;;;24.45;33.80;101436.41;5022487;28;20080;-56
2023/06/14 03:37:17;;;;;;;6.45;3.65;;;;;;;24.43;34.10;101432.13;5021793;28;20049;-56
2023/06/14 03:39:46;;;;;;;7.97;3.58;;;;;;;24.44;34.32;101436.56;5022260;28;20029;-56
2023/06/14 03:42:13;;;;;;;4.68;3.10;;;;;;;24.38;33.80;101436.25;5016561;28;20061;-56
2023/06/14 03:44:38;;;;;;;5.97;3.45;;;;;;;24.39;34.06;101435.22;5021848;28;20037;-56
2023/06/14 03:47:04;;;;;;;5.60;3.53;;;;;;;24.39;34.50;101437.94;5020661;28;20038;-56
2023/06/14 03:49:30;;;;;;;7.25;3.35;;;;;;;24.38;34.29;101440.84;5021223;28;20112;-56
2023/06/14 03:51:55;;;;;;;3.60;3.10;;;;;;;24.38;34.09;101446.28;5022190;28;20399;-56
2023/06/14 03:54:21;;;;;;;4.65;3.40;;;;;;;24.34;34.46;101442.22;5022558;28;20029;-55
2023/06/14 03:56:47;;;;;;;4.43;3.38;;;;;;;24.33;34.63;101443.22;5023648;28;20502;-56
2023/06/14 03:59:12;;;;;;;4.63;3.33;;;;;;;24.32;34.40;101447.00;5016948;28;20060;-56
2023/06/14 04:01:38;;;;;;;6.78;3.53;;;;;;;24.33;34.17;101443.22;5020788;28;20483;-56
2023/06/14 04:04:04;;;;;;;5.55;3.60;;;;;;;24.31;34.58;101448.00;5021206;28;20481;-56
2023/06/14 04:06:32;;;;;;;5.93;3.08;;;;;;;24.29;34.73;101441.88;5024588;28;20031;-56
2023/06/14 04:09:02;;;;;;;7.28;2.92;;;;;;;24.28;34.54;101445.66;5020863;28;20116;-56
2023/06/14 04:11:27;;;;;;;6.10;3.47;;;;;;;24.25;34.71;101457.69;5018792;28;20068;-56
2023/06/14 04:13:53;;;;;;;6.22;3.35;;;;;;;24.28;34.58;101451.94;5020768;28;20026;-56
2023/06/14 04:16:19;;;;;;;6.60;3.13;;;;;;;24.25;34.67;101457.69;5017283;28;20086;-56
2023/06/14 04:18:46;;;;;;;4.28;3.20;;;;;;;24.25;35.22;101457.69;5019808;28;20033;-56
2023/06/14 04:21:12;;;;;;;4.97;3.40;;;;;;;24.25;35.08;101467.75;5021593;28;20030;-56
2023/06/14 04:23:37;;;;;;;7.32;3.30;;;;;;;24.23;35.00;101459.75;5019801;28;20064;-56
2023/06/14 04:26:03;;;;;;;6.32;3.80;;;;;;;24.26;35.27;101466.75;5020043;28;20067;-56
2023/06/14 04:28:28;;;;;;;5.47;3.38;;;;;;;24.24;35.16;101466.91;5018049;28;20038;-56
2023/06/14 04:30:54;;;;;;;7.32;3.30;;;;;;;24.23;35.00;101472.50;5021903;28;20036;-56
2023/06/14 04:33:19;;;;;;;7.03;3.10;;;;;;;24.23;34.76;101467.91;5020745;28;20110;-56
2023/06/14 04:35:47;;;;;;;6.35;3.20;;;;;;;24.22;35.24;101468.09;5021270;28;20037;-56
2023/06/14 04:38:12;;;;;;;5.65;3.20;;;;;;;24.19;35.25;101469.28;5019147;28;20033;-56
2023/06/14 04:40:42;;;;;;;8.82;3.47;;;;;;;24.18;35.38;101473.88;5018119;28;20098;-56
2023/06/14 04:43:12;;;;;;;6.75;3.70;;;;;;;24.18;35.25;101471.16;5020325;28;20124;-56
2023/06/14 04:45:39;;;;;;;3.63;3.08;;;;;;;24.20;35.45;101471.00;5020735;28;20041;-56
2023/06/14 04:48:06;;;;;;;3.58;3.15;;;;;;;24.18;34.97;101473.03;5019511;28;20141;-56
2023/06/14 04:50:32;;;;;;;6.22;3.40;;;;;;;24.17;35.43;101469.44;5021353;28;20045;-56
2023/06/14 04:52:59;;;;;;;5.63;3.67;;;;;;;24.15;35.05;101463.34;5021211;28;20033;-56
2023/06/14 04:55:26;;;;;;;5.10;3.50;;;;;;;24.16;35.44;101475.94;5019954;28;20365;-56
2023/06/14 04:57:53;;;;;;;4.72;3.28;;;;;;;24.14;35.34;101467.09;5021102;28;20053;-56
2023/06/14 05:00:20;;;;;;;6.25;3.20;;;;;;;24.14;35.08;101471.66;5014770;28;20058;-56
2023/06/14 05:02:46;;;;;;;5.53;3.03;;;;;;;24.12;35.24;101469.13;5020060;28;20064;-55
2023/06/14 05:05:12;;;;;;;4.25;3.10;;;;;;;24.14;35.17;101475.25;5017881;28;20029;-55
2023/06/14 05:07:38;;;;;;;4.95;3.03;;;;;;;24.13;35.11;101481.72;5026441;28;20105;-55
2023/06/14 05:10:05;;;;;;;7.30;3.08;;;;;;;24.13;34.87;101480.88;5022673;28;20033;-55
2023/06/14 05:12:30;;;;;;;5.40;3.08;;;;;;;24.12;34.99;101482.75;5016156;28;20533;-55
2023/06/14 05:14:58;;;;;;;3.20;2.47;;;;;;;24.13;34.86;101487.16;5017912;28;20038;-55
2023/06/14 05:17:24;;;;;;;4.07;3.28;;;;;;;24.13;35.22;101473.53;5020767;28;20124;-55
2023/06/14 05:19:49;;;;;;;5.43;3.38;;;;;;;24.11;35.24;101483.75;5020112;28;20473;-55
2023/06/14 05:22:15;;;;;;;6.63;3.30;;;;;;;24.11;35.19;101489.19;5019391;28;20033;-55
2023/06/14 05:24:41;;;;;;;6.63;3.75;;;;;;;24.11;34.89;101493.78;5014944;28;20495;-55
2023/06/14 05:27:07;;;;;;;6.75;2.72;;;;;;;24.11;34.71;101494.63;5013569;28;20037;-55
2023/06/14 05:29:32;;;;;;;4.88;3.33;;;;;;;24.10;35.46;101486.63;5016615;28;20029;-55
2023/06/14 05:31:57;;;;;;;3.75;3.20;;;;;;;24.12;35.10;101495.47;5015843;28;20038;-55
2023/06/14 05:34:23;;;;;;;5.43;3.53;;;;;;;24.01;35.10;101491.25;5019124;28;20400;-49
2023/06/14 05:36:48;;;;;;;6.30;3.83;;;;;;;23.84;34.94;101492.25;5016689;28;20117;-47
2023/06/14 05:39:14;;;;;;;7.45;3.55;;;;;;;23.65;35.54;101493.41;5017504;28;20369;-48
2023/06/14 05:41:39;;;;;;;14.00;4.65;;;;;;;23.51;35.94;101492.19;5020121;28;20029;-49
2023/06/14 05:44:04;;;;;;;8.68;3.92;;;;;;;23.45;36.43;101501.03;5019722;28;20105;-48
2023/06/14 05:46:30;;;;;;;9.57;4.18;;;;;;;23.32;36.92;101498.78;5020163;28;20034;-46
2023/06/14 05:48:55;;;;;;;9.77;3.80;;;;;;;23.25;36.50;101505.88;5021631;28;20029;-49
2023/06/14 05:51:21;;;;;;;7.15;3.58;;;;;;;23.15;36.56;101511.47;5019299;28;20029;-49
2023/06/14 05:53:48;;;;;;;4.07;3.40;;;;;;;23.06;36.42;101520.63;5018387;28;20041;-50
2023/06/14 05:56:14;;;;;;;10.13;4.22;;;;;;;22.96;36.94;101502.56;5020670;28;20029;-50
2023/06/14 05:58:40;;;;;;;7.72;3.72;;;;;;;22.90;37.23;101508.59;5020137;28;20060;-48
2023/06/14 06:01:05;;;;;;;8.85;4.07;;;;;;;22.89;36.71;101512.34;5019073;28;20034;-50
2023/06/14 06:03:31;;;;;;;8.65;3.40;;;;;;;22.90;36.97;101515.91;5020133;28;20380;-50
2023/06/14 06:05:56;;;;;;;8.90;3.65;;;;;;;22.89;37.18;101519.66;5018818;28;20037;-47
2023/06/14 06:08:22;;;;;;;5.82;3.92;;;;;;;22.88;37.04;101512.50;5020360;28;20034;-48
2023/06/14 06:10:47;;;;;;;13.45;4.30;;;;;;;22.82;36.90;101514.00;5016626;28;20484;-53
2023/06/14 06:13:12;;;;;;;12.98;4.30;;;;;;;22.85;37.43;101519.13;5016922;28;20037;-50
2023/06/14 06:15:38;;;;;;;7.47;3.72;;;;;;;22.91;37.07;101520.34;5019727;28;20120;-49
2023/06/14 06:18:03;;;;;;;7.38;3.40;;;;;;;23.00;37.33;101522.94;5019566;28;20375;-48
2023/06/14 06:20:31;;;;;;;5.78;3.53;;;;;;;23.09;37.32;101525.69;5018453;28;20041;-50
2023/06/14 06:22:58;;;;;;;13.13;3.75;;;;;;;23.16;37.26;101526.75;5021601;28;20033;-49
2023/06/14 06:25:25;;;;;;;5.78;3.45;;;;;;;23.22;36.94;101523.38;5017102;28;20104;-49
2023/06/14 06:27:55;;;;;;;5.50;3.40;;;;;;;23.28;37.09;101530.84;5020107;28;20061;-47
2023/06/14 06:30:21;;;;;;;4.97;3.33;;;;;;;23.34;36.66;101535.66;5016548;28;20056;-49
2023/06/14 06:32:47;;;;;;;8.43;3.17;;;;;;;23.38;36.56;101537.03;5022540;28;20033;-48
2023/06/14 06:35:12;;;;;;;6.93;3.47;;;;;;;23.43;36.41;101540.06;5019294;28;20042;-48
2023/06/14 06:37:38;;;;;;;5.32;3.30;;;;;;;23.48;36.82;101536.03;5022562;28;20044;-46
2023/06/14 06:40:05;;;;;;;5.55;3.20;;;;;;;23.51;36.58;101538.41;5022156;28;20034;-46
2023/06/14 06:42:34;;;;;;;6.40;3.97;;;;;;;23.54;36.46;101554.38;5023178;28;20038;-46
2023/06/14 06:44:59;;;;;;;6.32;3.30;;;;;;;23.56;36.50;101549.63;5030999;28;20094;-49
2023/06/14 06:47:25;;;;;;;6.20;3.58;;;;;;;23.59;36.39;101549.31;5023308;28;20486;-46
2023/06/14 06:49:50;;;;;;;5.32;3.17;;;;;;;23.61;36.87;101556.28;5024400;28;20038;-48
2023/06/14 06:52:16;;;;;;;4.10;2.92;;;;;;;23.63;37.07;101561.56;5022894;28;20041;-50
2023/06/14 06:54:41;;;;;;;5.72;3.17;;;;;;;23.65;36.77;101554.06;5023895;28;20407;-49
2023/06/14 06:57:07;;;;;;;6.50;3.10;;;;;;;23.67;36.99;101562.06;5022901;28;20116;-49
2023/06/14 06:59:33;;;;;;;4.53;2.80;;;;;;;23.68;36.76;101552.88;5018536;28;20538;-48
2023/06/14 07:01:59;;;;;;;5.55;3.35;;;;;;;23.70;37.05;101568.00;5023002;28;20029;-50
2023/06/14 07:04:24;;;;;;;5.00;2.90;;;;;;;23.71;36.68;101568.88;5019837;28;20113;-49
2023/06/14 07:06:50;;;;;;;5.40;3.08;;;;;;;23.73;36.96;101575.84;5020298;28;20499;-49
2023/06/14 07:09:16;;;;;;;6.07;3.42;;;;;;;23.73;36.80;101572.28;5026813;28;20033;-49
2023/06/14 07:11:43;;;;;;;6.00;2.85;;;;;;;23.74;36.61;101576.69;5023224;28;20475;-46
2023/06/14 07:14:09;;;;;;;5.43;2.90;;;;;;;23.75;36.72;101573.81;5022908;28;20072;-49
2023/06/14 07:16:34;;;;;;;5.15;3.22;;;;;;;23.76;37.19;101577.38;5022049;28;20061;-49
2023/06/14 07:19:00;;;;;;;5.63;3.17;;;;;;;23.77;36.83;101577.19;5022718;28;20033;-48
2023/06/14 07:21:26;;;;;;;5.90;3.05;;;;;;;23.77;36.79;101573.63;5023604;28;20108;-49
2023/06/14 07:23:53;;;;;;;4.43;2.92;;;;;;;23.78;37.01;101576.22;5022534;28;20032;-50
2023/06/14 07:26:18;;;;;;;3.95;3.05;;;;;;;23.79;37.37;101577.91;5027313;28;20038;-49
2023/06/14 07:28:44;;;;;;;3.95;2.75;;;;;;;23.81;37.04;101591.34;5024065;28;20038;-48
2023/06/14 07:31:10;;;;;;;7.10;3.00;;;;;;;23.80;37.18;101581.50;5021446;28;20044;-49
2023/06/14 07:33:36;;;;;;;3.65;2.65;;;;;;;23.81;37.24;101589.47;5022947;28;20120;-50
2023/06/14 07:36:01;;;;;;;4.72;2.72;;;;;;;23.81;37.33;101586.75;5022147;28;20117;-50
2023/06/14 07:38:27;;;;;;;3.00;2.58;;;;;;;23.83;37.21;101588.47;5022629;28;20179;-50
2023/06/14 07:40:52;;;;;;;4.28;2.83;;;;;;;23.84;37.27;101591.03;5026340;28;20032;-49
2023/06/14 07:43:18;;;;;;;4.18;3.33;;;;;;;23.83;37.57;101599.34;5020197;28;20049;-48
2023/06/14 07:45:43;;;;;;;3.03;2.67;;;;;;;23.84;37.29;101591.03;5023088;28;20031;-49
2023/06/14 07:48:09;;;;;;;4.55;2.92;;;;;;;23.85;37.51;101602.75;5023182;28;20376;-49
2023/06/14 07:50:34;;;;;;;3.33;2.60;;;;;;;23.85;37.43;101605.47;5023493;28;20388;-49
2023/06/14 07:53:00;;;;;;;3.33;3.03;;;;;;;23.85;37.22;101608.19;5021482;28;20056;-50
2023/06/14 07:55:25;;;;;;;5.05;2.80;;;;;;;23.86;37.63;101610.75;5021669;28;20105;-48
2023/06/14 07:57:51;;;;;;;3.20;2.50;;;;;;;23.86;37.37;101615.34;5023318;28;20034;-49
2023/06/14 08:00:19;;;;;;;3.35;2.63;;;;;;;23.86;37.52;101616.19;5018359;28;20496;-49
2023/06/14 08:02:45;;;;;;;6.25;2.92;;;;;;;23.88;37.42;101618.75;5020644;28;20148;-49
2023/06/14 08:05:11;;;;;;;5.50;3.00;;;;;;;23.86;37.66;101608.03;5029217;28;20065;-49
2023/06/14 08:07:38;;;;;;;3.85;2.70;;;;;;;23.87;37.38;101622.47;5017441;28;20566;-49
2023/06/14 08:10:06;;;;;;;3.97;2.63;;;;;;;23.87;37.44;101623.31;5022119;28;20025;-48
2023/06/14 08:12:31;;;;;;;4.00;2.53;;;;;;;23.89;37.41;101615.00;5022456;28;20434;-47
2023/06/14 08:14:57;;;;;;;3.67;2.75;;;;;;;23.88;37.51;101616.88;5020902;28;20029;-49
2023/06/14 08:17:22;;;;;;;3.78;2.60;;;;;;;23.90;37.70;101622.16;5022375;28;20034;-49
2023/06/14 08:19:47;;;;;;;4.22;2.92;;;;;;;23.91;37.55;101618.38;5020962;28;20034;-49
2023/06/14 08:22:13;;;;;;;5.88;2.90;;;;;;;23.90;37.77;101616.72;5020606;28;20094;-50
2023/06/14 08:24:42;;;;;;;3.13;2.80;;;;;;;23.92;37.49;101606.50;5019120;28;20037;-49
2023/06/14 08:27:07;;;;;;;3.40;2.50;;;;;;;23.92;37.89;101614.66;5021818;28;20052;-50
2023/06/14 08:29:33;;;;;;;4.75;2.72;;;;;;;23.92;37.60;101603.78;5021667;28;20476;-47
2023/06/14 08:31:58;;;;;;;2.95;2.45;;;;;;;23.93;37.48;101610.91;5021252;28;20045;-48
2023/06/14 08:34:24;;;;;;;3.50;2.40;;;;;;;23.93;37.60;101605.47;5021676;28;20033;-49
2023/06/14 08:36:52;;;;;;;2.85;2.55;;;;;;;23.92;37.93;101615.50;5022494;28;20065;-49
2023/06/14 08:39:17;;;;;;;3.17;2.35;;;;;;;23.94;38.24;101609.91;5021925;28;20034;-49
2023/06/14 08:41:46;;;;;;;4.20;2.38;;;;;;;23.94;37.89;101612.63;5021822;28;20038;-48
2023/06/14 08:44:12;;;;;;;4.07;2.30;;;;;;;23.94;37.88;101605.31;5019971;28;20040;-49
2023/06/14 08:46:38;;;;;;;2.67;2.47;;;;;;;23.95;37.86;101615.19;5021200;28;20431;-50
2023/06/14 08:49:06;;;;;;;3.95;2.80;;;;;;;23.95;37.93;101608.88;5021887;28;20480;-50
2023/06/14 08:51:36;;;;;;;2.92;2.42;;;;;;;23.95;37.96;101614.31;5022213;28;20360;-50
2023/06/14 08:54:05;;;;;;;3.47;2.60;;;;;;;23.96;37.68;101607.88;5019215;28;20385;-50
2023/06/14 08:56:31;;;;;;;2.60;2.40;;;;;;;23.96;38.01;101605.16;5020890;28;20115;-48
2023/06/14 08:59:02;;;;;;;3.03;2.72;;;;;;;23.97;38.26;101609.56;5017700;28;20046;-49
2023/06/14 09:01:28;;;;;;;3.15;2.55;;;;;;;23.97;37.81;101610.44;5016187;28;20559;-49
2023/06/14 09:03:57;;;;;;;6.45;2.28;;;;;;;23.98;37.70;101614.84;5021391;28;20053;-50
2023/06/14 09:06:24;;;;;;;2.35;2.15;;;;;;;23.98;37.83;101605.84;5021558;28;20028;-50
2023/06/14 09:08:50;;;;;;;2.70;2.15;;;;;;;23.98;38.04;101614.84;5017790;28;20383;-49
2023/06/14 09:11:18;;;;;;;3.75;2.80;;;;;;;23.99;37.82;101610.28;5021279;28;20034;-48
2023/06/14 09:13:45;;;;;;;3.55;2.78;;;;;;;23.99;38.33;101613.84;5019583;28;20049;-48
2023/06/14 09:16:10;;;;;;;3.72;2.72;;;;;;;23.99;38.07;101611.09;5020908;28;20069;-49
2023/06/14 09:18:44;;;;;;;3.97;2.65;;;;;;;24.01;37.99;101624.56;5021033;28;20065;-49
2023/06/14 09:21:13;;;;;;;2.78;2.45;;;;;;;24.00;38.38;101612.78;5022600;28;20108;-49
2023/06/14 09:23:40;;;;;;;2.78;2.22;;;;;;;23.99;38.27;101613.84;5019978;28;20636;-50
2023/06/14 09:26:11;;;;;;;4.30;2.75;;;;;;;24.00;38.37;101612.78;5020560;28;20364;-48
2023/06/14 09:28:40;;;;;;;3.42;2.25;;;;;;;24.01;38.22;101605.50;5020915;28;20025;-49
2023/06/14 09:31:08;;;;;;;2.58;2.38;;;;;;;24.01;38.27;101619.09;5020557;28;20034;-47
2023/06/14 09:33:34;;;;;;;3.05;2.40;;;;;;;24.03;37.89;101610.75;5027610;28;20033;-48
2023/06/14 09:35:59;;;;;;;2.50;2.15;;;;;;;24.03;38.20;101621.63;5021735;28;20076;-50
2023/06/14 09:38:26;;;;;;;2.40;2.20;;;;;;;24.03;38.27;101613.47;5020296;28;20472;-48
2023/06/14 09:40:52;;;;;;;2.55;2.05;;;;;;;24.03;38.38;101619.78;5019733;28;20116;-50
2023/06/14 09:43:18;;;;;;;2.65;2.13;;;;;;;24.03;38.36;101622.50;5020119;28;20521;-48
2023/06/14 09:45:45;;;;;;;3.25;2.38;;;;;;;24.04;38.08;101623.34;5020585;28;20049;-49
2023/06/14 09:48:17;;;;;;;3.42;2.38;;;;;;;24.03;38.37;101627.94;5020719;28;20026;-49
2023/06/14 09:50:44;;;;;;;2.67;2.13;;;;;;;24.04;38.06;101624.19;5020347;28;20045;-49
2023/06/14 09:53:12;;;;;;;2.92;2.63;;;;;;;24.05;38.65;101622.34;5016480;28;20034;-49
2023/06/14 09:55:40;;;;;;;2.30;2.10;;;;;;;24.05;38.38;101636.78;5019642;28;20042;-49
2023/06/14 09:58:07;;;;;;;2.78;2.42;;;;;;;24.05;38.44;101631.34;5024855;28;20091;-49
2023/06/14 10:00:34;;;;;;;3.13;2.53;;;;;;;24.06;38.32;101626.75;5016570;28;20081;-50
2023/06/14 10:03:07;;;;;;;2.53;2.20;;;;;;;24.06;38.72;101624.03;5020707;28;20061;-49
2023/06/14 10:05:36;;;;;;;2.90;2.45;;;;;;;24.06;38.20;101622.16;5021883;28;20018;-48
2023/06/14 10:08:08;;;;;;;2.53;2.13;;;;;;;24.07;38.78;101621.16;5027631;28;20391;-49
2023/06/14 10:10:34;;;;;;;2.22;2.00;;;;;;;24.08;38.42;101609.22;5023581;28;20426;-49
2023/06/14 10:13:00;;;;;;;2.90;2.35;;;;;;;24.07;38.36;101610.28;5024228;28;20029;-47
2023/06/14 10:15:50;;;;;;;3.28;2.35;;;;;;;24.09;38.54;101610.94;5022236;28;20484;-49
2023/06/14 10:18:40;;;;;;;2.38;2.17;;;;;;;24.10;38.34;101617.22;5023785;28;20034;-50
2023/06/14 10:21:42;;;;;;;3.00;2.17;;;;;;;24.11;38.33;101602.63;5024694;28;20032;-48
2023/06/14 10:24:10;;;;;;;2.20;2.00;;;;;;;24.08;38.35;101606.50;5023771;28;20483;-48
2023/06/14 10:26:50;;;;;;;4.63;2.88;;;;;;;24.11;38.73;101611.63;5023132;28;20112;-48
2023/06/14 10:29:16;;;;;;;2.60;1.92;;;;;;;24.10;38.28;101609.06;5023414;28;20499;-48
2023/06/14 10:31:56;;;;;;;2.63;2.30;;;;;;;24.10;38.56;101618.06;5024372;28;20037;-49
2023/06/14 10:34:27;;;;;;;2.55;1.77;;;;;;;24.11;38.47;101618.94;5023577;28;20034;-49
2023/06/14 10:37:06;;;;;;;2.10;1.90;;;;;;;24.12;38.28;101610.63;5024252;28;20022;-49
2023/06/14 10:39:38;;;;;;;2.20;2.00;;;;;;;24.11;38.63;101608.91;5023514;28;20025;-49
2023/06/14 10:42:06;;;;;;;2.10;1.90;;;;;;;24.11;38.91;101611.63;5022453;28;20104;-49
2023/06/14 10:44:42;;;;;;;2.22;2.03;;;;;;;24.12;38.78;101616.06;5022381;28;20037;-49
2023/06/14 10:47:10;;;;;;;2.17;1.98;;;;;;;24.12;38.38;101610.63;5024322;28;20163;-49
2023/06/14 10:49:42;;;;;;;1.92;1.75;;;;;;;24.12;38.39;101610.63;5017198;28;20029;-50
2023/06/14 10:52:11;;;;;;;2.10;1.90;;;;;;;24.13;38.51;101617.75;5029609;28;20025;-50
2023/06/14 10:54:37;;;;;;;2.53;1.90;;;;;;;24.13;38.47;101604.16;5021904;28;20036;-49
2023/06/14 10:57:07;;;;;;;3.67;2.10;;;;;;;24.14;38.57;101614.03;5026027;28;20036;-48
2023/06/14 10:59:32;;;;;;;2.00;1.90;;;;;;;24.15;38.83;101609.44;5018605;28;20053;-46
2023/06/14 11:02:19;;;;;;;1.80;1.70;;;;;;;24.17;38.62;101610.09;5020722;28;20042;-50
2023/06/14 11:04:52;;;;;;;2.40;2.20;;;;;;;24.14;38.41;101607.72;5022705;28;20025;-50
2023/06/14 11:07:36;;;;;;;3.15;2.08;;;;;;;24.17;38.61;101612.81;5020424;28;20034;-49
2023/06/14 11:10:15;;;;;;;2.30;2.10;;;;;;;24.17;38.91;101613.66;5023498;28;20479;-49
2023/06/14 11:12:42;;;;;;;2.25;2.05;;;;;;;24.16;38.69;101614.72;5024605;28;20632;-50
2023/06/14 11:15:08;;;;;;;1.88;1.60;;;;;;;24.17;38.53;101619.09;5022735;28;20030;-48
2023/06/14 11:17:33;;;;;;;2.13;1.75;;;;;;;24.18;38.62;101609.09;5021607;28;20060;-48
2023/06/14 11:20:16;;;;;;;2.22;2.03;;;;;;;24.19;38.90;101602.63;5021698;28;20034;-48
2023/06/14 11:22:45;;;;;;;2.42;1.95;;;;;;;24.18;39.12;101604.50;5022320;28;20116;-48
2023/06/14 11:25:14;;;;;;;1.60;1.50;;;;;;;24.19;38.70;101608.06;5018550;28;20025;-49